sensor_id;sensor_type;location;lat;lon;timestamp;P1;durP1;ratioP1;P2;durP2;ratioP2
1306;SDS011;646;48.696;9.114;2022-12-18T00:00:43;6.43;;;5.43;;
1306;SDS011;646;48.696;9.114;2022-12-18T00:03:09;14.82;;;7.97;;
1306;SDS011;646;48.696;9.114;2022-12-18T00:05:35;10.20;;;6.37;;
1306;SDS011;646;48.696;9.114;2022-12-18T00:08:01;11.80;;;5.75;;
1306;SDS011;646;48.696;9.114;2022-12-18T00:10:27;8.50;;;6.32;;
1306;SDS011;646;48.696;9.114;2022-12-18T00:12:53;7.22;;;6.53;;
1306;SDS011;646;48.696;9.114;2022-12-18T00:15:19;7.93;;;5.33;;
1306;SDS011;646;48.696;9.114;2022-12-18T00:17:44;11.50;;;7.30;;
1306;SDS011;646;48.696;9.114;2022-12-18T00:20:10;7.43;;;6.13;;
1306;SDS011;646;48.696;9.114;2022-12-18T00:22:36;10.83;;;6.50;;
1306;SDS011;646;48.696;9.114;2022-12-18T00:25:01;7.93;;;5.47;;
1306;SDS011;646;48.696;9.114;2022-12-18T00:27:27;6.60;;;5.67;;
1306;SDS011;646;48.696;9.114;2022-12-18T00:29:52;10.00;;;5.80;;
1306;SDS011;646;48.696;9.114;2022-12-18T00:32:18;16.47;;;6.40;;
1306;SDS011;646;48.696;9.114;2022-12-18T00:34:43;6.47;;;5.43;;
1306;SDS011;646;48.696;9.114;2022-12-18T00:37:09;9.30;;;7.50;;
1306;SDS011;646;48.696;9.114;2022-12-18T00:39:34;10.30;;;7.90;;
1306;SDS011;646;48.696;9.114;2022-12-18T00:42:00;6.40;;;4.03;;
1306;SDS011;646;48.696;9.114;2022-12-18T00:44:44;6.22;;;5.63;;
1306;SDS011;646;48.696;9.114;2022-12-18T00:47:10;7.33;;;6.60;;
1306;SDS011;646;48.696;9.114;2022-12-18T00:49:35;8.87;;;5.80;;
1306;SDS011;646;48.696;9.114;2022-12-18T00:52:01;6.33;;;5.80;;
1306;SDS011;646;48.696;9.114;2022-12-18T00:54:26;12.53;;;7.70;;
1306;SDS011;646;48.696;9.114;2022-12-18T00:56:52;15.40;;;6.17;;
1306;SDS011;646;48.696;9.114;2022-12-18T00:59:17;12.27;;;7.37;;
1306;SDS011;646;48.696;9.114;2022-12-18T01:01:43;8.33;;;5.90;;
1306;SDS011;646;48.696;9.114;2022-12-18T01:04:09;12.32;;;7.35;;
1306;SDS011;646;48.696;9.114;2022-12-18T01:06:35;11.17;;;5.70;;
1306;SDS011;646;48.696;9.114;2022-12-18T01:09:00;13.67;;;8.13;;
1306;SDS011;646;48.696;9.114;2022-12-18T01:11:26;7.20;;;5.50;;
1306;SDS011;646;48.696;9.114;2022-12-18T01:13:52;10.13;;;6.80;;
1306;SDS011;646;48.696;9.114;2022-12-18T01:16:18;5.85;;;5.35;;
1306;SDS011;646;48.696;9.114;2022-12-18T01:18:44;10.20;;;6.90;;
1306;SDS011;646;48.696;9.114;2022-12-18T01:21:10;7.83;;;5.53;;
1306;SDS011;646;48.696;9.114;2022-12-18T01:23:38;7.13;;;5.80;;
1306;SDS011;646;48.696;9.114;2022-12-18T01:26:07;7.80;;;5.80;;
1306;SDS011;646;48.696;9.114;2022-12-18T01:28:35;10.15;;;9.40;;
1306;SDS011;646;48.696;9.114;2022-12-18T01:31:10;6.53;;;4.22;;
1306;SDS011;646;48.696;9.114;2022-12-18T01:33:36;10.65;;;9.05;;
1306;SDS011;646;48.696;9.114;2022-12-18T01:36:01;6.03;;;4.80;;
1306;SDS011;646;48.696;9.114;2022-12-18T01:38:28;6.50;;;3.30;;
1306;SDS011;646;48.696;9.114;2022-12-18T01:40:57;5.00;;;4.60;;
1306;SDS011;646;48.696;9.114;2022-12-18T01:43:46;9.15;;;6.25;;
1306;SDS011;646;48.696;9.114;2022-12-18T01:46:20;6.53;;;3.53;;
1306;SDS011;646;48.696;9.114;2022-12-18T01:48:48;11.68;;;5.10;;
1306;SDS011;646;48.696;9.114;2022-12-18T01:51:17;14.50;;;7.15;;
1306;SDS011;646;48.696;9.114;2022-12-18T01:53:43;5.13;;;4.60;;
1306;SDS011;646;48.696;9.114;2022-12-18T01:56:12;9.93;;;6.82;;
1306;SDS011;646;48.696;9.114;2022-12-18T01:58:48;7.70;;;4.03;;
1306;SDS011;646;48.696;9.114;2022-12-18T02:01:22;12.57;;;7.20;;
1306;SDS011;646;48.696;9.114;2022-12-18T02:03:49;9.15;;;4.28;;
1306;SDS011;646;48.696;9.114;2022-12-18T02:06:21;7.87;;;5.37;;
1306;SDS011;646;48.696;9.114;2022-12-18T02:09:14;6.88;;;4.38;;
1306;SDS011;646;48.696;9.114;2022-12-18T02:12:11;10.10;;;4.85;;
1306;SDS011;646;48.696;9.114;2022-12-18T02:14:45;5.50;;;4.50;;
1306;SDS011;646;48.696;9.114;2022-12-18T02:17:32;6.15;;;3.85;;
1306;SDS011;646;48.696;9.114;2022-12-18T02:20:14;6.28;;;5.55;;
1306;SDS011;646;48.696;9.114;2022-12-18T02:29:17;3.17;;;2.97;;
1306;SDS011;646;48.696;9.114;2022-12-18T02:31:44;6.10;;;4.45;;
1306;SDS011;646;48.696;9.114;2022-12-18T02:34:13;7.50;;;5.78;;
1306;SDS011;646;48.696;9.114;2022-12-18T02:36:41;9.60;;;5.50;;
1306;SDS011;646;48.696;9.114;2022-12-18T02:39:09;5.50;;;4.95;;
1306;SDS011;646;48.696;9.114;2022-12-18T02:41:36;6.70;;;5.10;;
1306;SDS011;646;48.696;9.114;2022-12-18T02:44:06;8.73;;;5.20;;
1306;SDS011;646;48.696;9.114;2022-12-18T02:46:35;15.55;;;6.45;;
1306;SDS011;646;48.696;9.114;2022-12-18T02:49:20;9.23;;;6.55;;
1306;SDS011;646;48.696;9.114;2022-12-18T02:57:23;5.65;;;5.15;;
1306;SDS011;646;48.696;9.114;2022-12-18T03:00:15;9.88;;;5.72;;
1306;SDS011;646;48.696;9.114;2022-12-18T03:02:46;10.90;;;7.97;;
1306;SDS011;646;48.696;9.114;2022-12-18T03:05:20;7.40;;;6.28;;
1306;SDS011;646;48.696;9.114;2022-12-18T03:08:03;6.95;;;5.03;;
1306;SDS011;646;48.696;9.114;2022-12-18T03:10:34;10.02;;;6.30;;
1306;SDS011;646;48.696;9.114;2022-12-18T03:13:07;9.43;;;6.13;;
1306;SDS011;646;48.696;9.114;2022-12-18T03:15:49;8.52;;;4.65;;
1306;SDS011;646;48.696;9.114;2022-12-18T03:18:18;7.30;;;6.70;;
1306;SDS011;646;48.696;9.114;2022-12-18T03:20:51;11.40;;;6.72;;
1306;SDS011;646;48.696;9.114;2022-12-18T03:23:21;10.25;;;7.15;;
1306;SDS011;646;48.696;9.114;2022-12-18T03:25:51;8.13;;;5.28;;
1306;SDS011;646;48.696;9.114;2022-12-18T03:28:21;6.20;;;5.22;;
1306;SDS011;646;48.696;9.114;2022-12-18T03:30:49;9.75;;;6.78;;
1306;SDS011;646;48.696;9.114;2022-12-18T03:33:37;7.45;;;5.32;;
1306;SDS011;646;48.696;9.114;2022-12-18T03:36:12;6.53;;;3.38;;
1306;SDS011;646;48.696;9.114;2022-12-18T03:38:37;10.17;;;6.83;;
1306;SDS011;646;48.696;9.114;2022-12-18T03:43:58;8.90;;;5.93;;
1306;SDS011;646;48.696;9.114;2022-12-18T03:46:52;7.47;;;6.72;;
1306;SDS011;646;48.696;9.114;2022-12-18T03:49:24;9.65;;;7.32;;
1306;SDS011;646;48.696;9.114;2022-12-18T03:52:13;18.00;;;7.88;;
1306;SDS011;646;48.696;9.114;2022-12-18T03:54:53;5.60;;;4.28;;
1306;SDS011;646;48.696;9.114;2022-12-18T03:57:21;11.00;;;7.43;;
1306;SDS011;646;48.696;9.114;2022-12-18T03:59:51;7.97;;;6.45;;
1306;SDS011;646;48.696;9.114;2022-12-18T04:02:22;5.97;;;5.38;;
1306;SDS011;646;48.696;9.114;2022-12-18T04:04:50;9.45;;;6.03;;
1306;SDS011;646;48.696;9.114;2022-12-18T04:07:18;12.32;;;8.30;;
1306;SDS011;646;48.696;9.114;2022-12-18T04:09:46;5.85;;;5.20;;
1306;SDS011;646;48.696;9.114;2022-12-18T04:12:13;10.15;;;5.22;;
1306;SDS011;646;48.696;9.114;2022-12-18T04:14:38;10.50;;;5.20;;
1306;SDS011;646;48.696;9.114;2022-12-18T04:17:04;6.90;;;3.80;;
1306;SDS011;646;48.696;9.114;2022-12-18T04:19:29;7.67;;;5.97;;
1306;SDS011;646;48.696;9.114;2022-12-18T04:21:55;8.20;;;4.63;;
1306;SDS011;646;48.696;9.114;2022-12-18T04:24:21;6.03;;;4.63;;
1306;SDS011;646;48.696;9.114;2022-12-18T04:26:46;4.97;;;4.53;;
1306;SDS011;646;48.696;9.114;2022-12-18T04:29:11;5.90;;;5.43;;
1306;SDS011;646;48.696;9.114;2022-12-18T04:31:37;7.30;;;5.60;;
1306;SDS011;646;48.696;9.114;2022-12-18T04:34:03;8.87;;;5.33;;
1306;SDS011;646;48.696;9.114;2022-12-18T04:36:29;4.85;;;3.67;;
1306;SDS011;646;48.696;9.114;2022-12-18T04:38:54;10.33;;;8.87;;
1306;SDS011;646;48.696;9.114;2022-12-18T04:41:20;11.43;;;7.05;;
1306;SDS011;646;48.696;9.114;2022-12-18T04:43:46;10.27;;;5.43;;
1306;SDS011;646;48.696;9.114;2022-12-18T04:46:11;12.90;;;6.00;;
1306;SDS011;646;48.696;9.114;2022-12-18T04:48:37;12.77;;;8.50;;
1306;SDS011;646;48.696;9.114;2022-12-18T04:51:04;5.00;;;4.13;;
1306;SDS011;646;48.696;9.114;2022-12-18T04:53:30;8.93;;;5.43;;
1306;SDS011;646;48.696;9.114;2022-12-18T04:56:05;7.43;;;3.63;;
1306;SDS011;646;48.696;9.114;2022-12-18T04:58:33;4.85;;;4.38;;
1306;SDS011;646;48.696;9.114;2022-12-18T05:00:59;8.77;;;5.70;;
1306;SDS011;646;48.696;9.114;2022-12-18T05:03:25;6.17;;;4.77;;
1306;SDS011;646;48.696;9.114;2022-12-18T05:05:50;6.20;;;4.47;;
1306;SDS011;646;48.696;9.114;2022-12-18T05:08:16;5.15;;;4.35;;
1306;SDS011;646;48.696;9.114;2022-12-18T05:10:42;9.90;;;6.07;;
1306;SDS011;646;48.696;9.114;2022-12-18T05:13:07;8.90;;;4.53;;
1306;SDS011;646;48.696;9.114;2022-12-18T05:15:33;7.63;;;5.80;;
1306;SDS011;646;48.696;9.114;2022-12-18T05:17:59;6.73;;;5.87;;
1306;SDS011;646;48.696;9.114;2022-12-18T05:20:25;8.95;;;5.35;;
1306;SDS011;646;48.696;9.114;2022-12-18T05:22:51;13.07;;;5.70;;
1306;SDS011;646;48.696;9.114;2022-12-18T05:25:17;6.27;;;4.93;;
1306;SDS011;646;48.696;9.114;2022-12-18T05:27:43;10.63;;;6.00;;
1306;SDS011;646;48.696;9.114;2022-12-18T05:30:10;9.40;;;5.93;;
1306;SDS011;646;48.696;9.114;2022-12-18T05:32:36;8.02;;;5.45;;
1306;SDS011;646;48.696;9.114;2022-12-18T05:35:03;5.65;;;4.40;;
1306;SDS011;646;48.696;9.114;2022-12-18T05:37:29;12.15;;;7.20;;
1306;SDS011;646;48.696;9.114;2022-12-18T05:39:55;11.07;;;7.00;;
1306;SDS011;646;48.696;9.114;2022-12-18T05:42:21;6.57;;;4.87;;
1306;SDS011;646;48.696;9.114;2022-12-18T05:44:46;7.23;;;5.93;;
1306;SDS011;646;48.696;9.114;2022-12-18T05:47:12;4.97;;;4.63;;
1306;SDS011;646;48.696;9.114;2022-12-18T05:49:37;9.70;;;6.63;;
1306;SDS011;646;48.696;9.114;2022-12-18T05:52:03;9.03;;;4.73;;
1306;SDS011;646;48.696;9.114;2022-12-18T05:54:29;6.27;;;4.80;;
1306;SDS011;646;48.696;9.114;2022-12-18T05:56:54;11.40;;;7.47;;
1306;SDS011;646;48.696;9.114;2022-12-18T05:59:20;6.67;;;4.70;;
1306;SDS011;646;48.696;9.114;2022-12-18T06:01:45;15.20;;;8.37;;
1306;SDS011;646;48.696;9.114;2022-12-18T06:04:11;18.47;;;9.23;;
1306;SDS011;646;48.696;9.114;2022-12-18T06:06:37;9.03;;;7.63;;
1306;SDS011;646;48.696;9.114;2022-12-18T06:09:03;12.93;;;8.57;;
1306;SDS011;646;48.696;9.114;2022-12-18T06:11:33;21.23;;;11.10;;
1306;SDS011;646;48.696;9.114;2022-12-18T06:14:00;15.95;;;11.40;;
1306;SDS011;646;48.696;9.114;2022-12-18T06:16:26;15.20;;;11.27;;
1306;SDS011;646;48.696;9.114;2022-12-18T06:18:52;19.35;;;12.52;;
1306;SDS011;646;48.696;9.114;2022-12-18T06:21:20;17.02;;;9.10;;
1306;SDS011;646;48.696;9.114;2022-12-18T06:23:46;11.20;;;8.27;;
1306;SDS011;646;48.696;9.114;2022-12-18T06:26:12;14.87;;;7.37;;
1306;SDS011;646;48.696;9.114;2022-12-18T06:28:38;7.40;;;5.55;;
1306;SDS011;646;48.696;9.114;2022-12-18T06:31:04;7.17;;;6.43;;
1306;SDS011;646;48.696;9.114;2022-12-18T06:33:30;8.10;;;6.60;;
1306;SDS011;646;48.696;9.114;2022-12-18T06:35:59;16.40;;;5.57;;
1306;SDS011;646;48.696;9.114;2022-12-18T06:38:26;5.10;;;4.32;;
1306;SDS011;646;48.696;9.114;2022-12-18T06:40:52;9.30;;;5.30;;
1306;SDS011;646;48.696;9.114;2022-12-18T06:43:18;8.77;;;7.87;;
1306;SDS011;646;48.696;9.114;2022-12-18T06:45:43;11.00;;;5.30;;
1306;SDS011;646;48.696;9.114;2022-12-18T06:48:09;5.53;;;4.37;;
1306;SDS011;646;48.696;9.114;2022-12-18T06:50:34;5.87;;;5.07;;
1306;SDS011;646;48.696;9.114;2022-12-18T06:53:00;4.20;;;3.90;;
1306;SDS011;646;48.696;9.114;2022-12-18T06:55:25;11.80;;;6.23;;
1306;SDS011;646;48.696;9.114;2022-12-18T06:57:51;6.17;;;4.43;;
1306;SDS011;646;48.696;9.114;2022-12-18T07:00:16;6.97;;;4.67;;
1306;SDS011;646;48.696;9.114;2022-12-18T07:02:42;8.37;;;5.30;;
1306;SDS011;646;48.696;9.114;2022-12-18T07:05:08;5.80;;;4.53;;
1306;SDS011;646;48.696;9.114;2022-12-18T07:07:34;2.60;;;2.27;;
1306;SDS011;646;48.696;9.114;2022-12-18T07:09:59;7.32;;;6.15;;
1306;SDS011;646;48.696;9.114;2022-12-18T07:12:26;8.20;;;3.50;;
1306;SDS011;646;48.696;9.114;2022-12-18T07:14:52;7.55;;;4.53;;
1306;SDS011;646;48.696;9.114;2022-12-18T07:17:17;5.70;;;3.87;;
1306;SDS011;646;48.696;9.114;2022-12-18T07:19:43;5.00;;;3.53;;
1306;SDS011;646;48.696;9.114;2022-12-18T07:22:08;6.63;;;4.77;;
1306;SDS011;646;48.696;9.114;2022-12-18T07:24:34;6.00;;;5.40;;
1306;SDS011;646;48.696;9.114;2022-12-18T07:26:59;6.77;;;4.43;;
1306;SDS011;646;48.696;9.114;2022-12-18T07:29:25;6.53;;;5.90;;
1306;SDS011;646;48.696;9.114;2022-12-18T07:31:50;17.60;;;8.40;;
1306;SDS011;646;48.696;9.114;2022-12-18T07:34:16;7.07;;;4.47;;
1306;SDS011;646;48.696;9.114;2022-12-18T07:36:42;5.33;;;3.10;;
1306;SDS011;646;48.696;9.114;2022-12-18T07:39:07;3.30;;;3.00;;
1306;SDS011;646;48.696;9.114;2022-12-18T07:41:33;10.00;;;5.17;;
1306;SDS011;646;48.696;9.114;2022-12-18T07:43:58;9.73;;;6.10;;
1306;SDS011;646;48.696;9.114;2022-12-18T07:46:24;13.00;;;7.33;;
1306;SDS011;646;48.696;9.114;2022-12-18T07:48:49;7.37;;;4.30;;
1306;SDS011;646;48.696;9.114;2022-12-18T07:51:15;8.83;;;5.77;;
1306;SDS011;646;48.696;9.114;2022-12-18T07:53:41;15.50;;;7.63;;
1306;SDS011;646;48.696;9.114;2022-12-18T07:56:08;7.50;;;6.20;;
1306;SDS011;646;48.696;9.114;2022-12-18T07:58:35;7.93;;;4.85;;
1306;SDS011;646;48.696;9.114;2022-12-18T08:01:08;11.27;;;8.47;;
1306;SDS011;646;48.696;9.114;2022-12-18T08:03:35;6.90;;;5.82;;
1306;SDS011;646;48.696;9.114;2022-12-18T08:06:04;9.65;;;5.72;;
1306;SDS011;646;48.696;9.114;2022-12-18T08:08:32;10.93;;;7.10;;
1306;SDS011;646;48.696;9.114;2022-12-18T08:10:58;11.15;;;7.45;;
1306;SDS011;646;48.696;9.114;2022-12-18T08:13:24;7.80;;;6.57;;
1306;SDS011;646;48.696;9.114;2022-12-18T08:15:57;11.70;;;7.70;;
1306;SDS011;646;48.696;9.114;2022-12-18T08:18:23;15.25;;;7.32;;
1306;SDS011;646;48.696;9.114;2022-12-18T08:20:49;6.90;;;4.57;;
1306;SDS011;646;48.696;9.114;2022-12-18T08:23:14;9.60;;;8.43;;
1306;SDS011;646;48.696;9.114;2022-12-18T08:25:40;10.37;;;9.23;;
1306;SDS011;646;48.696;9.114;2022-12-18T08:28:05;11.90;;;7.17;;
1306;SDS011;646;48.696;9.114;2022-12-18T08:30:31;17.90;;;8.07;;
1306;SDS011;646;48.696;9.114;2022-12-18T08:32:56;13.73;;;10.47;;
1306;SDS011;646;48.696;9.114;2022-12-18T08:35:22;13.87;;;7.50;;
1306;SDS011;646;48.696;9.114;2022-12-18T08:37:47;9.30;;;5.63;;
1306;SDS011;646;48.696;9.114;2022-12-18T08:40:13;10.57;;;8.93;;
1306;SDS011;646;48.696;9.114;2022-12-18T08:42:38;7.63;;;6.80;;
1306;SDS011;646;48.696;9.114;2022-12-18T08:45:30;20.00;;;11.80;;
1306;SDS011;646;48.696;9.114;2022-12-18T08:47:56;15.27;;;11.60;;
1306;SDS011;646;48.696;9.114;2022-12-18T08:50:21;16.17;;;14.33;;
1306;SDS011;646;48.696;9.114;2022-12-18T08:52:47;20.20;;;13.60;;
1306;SDS011;646;48.696;9.114;2022-12-18T08:55:12;19.13;;;15.60;;
1306;SDS011;646;48.696;9.114;2022-12-18T08:57:38;20.00;;;13.60;;
1306;SDS011;646;48.696;9.114;2022-12-18T09:00:04;18.03;;;14.07;;
1306;SDS011;646;48.696;9.114;2022-12-18T09:02:30;21.27;;;16.73;;
1306;SDS011;646;48.696;9.114;2022-12-18T09:04:55;27.17;;;17.03;;
1306;SDS011;646;48.696;9.114;2022-12-18T09:07:21;27.57;;;20.00;;
1306;SDS011;646;48.696;9.114;2022-12-18T09:09:46;23.30;;;16.73;;
1306;SDS011;646;48.696;9.114;2022-12-18T09:12:12;28.67;;;20.60;;
1306;SDS011;646;48.696;9.114;2022-12-18T09:14:37;31.47;;;22.27;;
1306;SDS011;646;48.696;9.114;2022-12-18T09:17:03;29.20;;;22.57;;
1306;SDS011;646;48.696;9.114;2022-12-18T09:19:28;32.33;;;25.57;;
1306;SDS011;646;48.696;9.114;2022-12-18T09:21:54;30.83;;;25.33;;
1306;SDS011;646;48.696;9.114;2022-12-18T09:24:19;32.90;;;23.57;;
1306;SDS011;646;48.696;9.114;2022-12-18T09:26:45;26.10;;;20.93;;
1306;SDS011;646;48.696;9.114;2022-12-18T09:29:10;33.63;;;22.87;;
1306;SDS011;646;48.696;9.114;2022-12-18T09:31:36;35.57;;;21.30;;
1306;SDS011;646;48.696;9.114;2022-12-18T09:34:02;30.88;;;20.95;;
1306;SDS011;646;48.696;9.114;2022-12-18T09:36:28;24.77;;;20.37;;
1306;SDS011;646;48.696;9.114;2022-12-18T09:38:53;26.97;;;20.93;;
1306;SDS011;646;48.696;9.114;2022-12-18T09:44:18;23.23;;;18.90;;
1306;SDS011;646;48.696;9.114;2022-12-18T09:46:58;24.98;;;19.83;;
1306;SDS011;646;48.696;9.114;2022-12-18T09:50:04;24.58;;;19.75;;
1306;SDS011;646;48.696;9.114;2022-12-18T09:52:41;25.80;;;20.33;;
1306;SDS011;646;48.696;9.114;2022-12-18T09:57:42;23.65;;;18.90;;
1306;SDS011;646;48.696;9.114;2022-12-18T10:00:20;22.83;;;16.67;;
1306;SDS011;646;48.696;9.114;2022-12-18T10:02:48;21.25;;;17.77;;
1306;SDS011;646;48.696;9.114;2022-12-18T10:05:28;20.05;;;16.80;;
1306;SDS011;646;48.696;9.114;2022-12-18T10:16:13;22.10;;;17.17;;
1306;SDS011;646;48.696;9.114;2022-12-18T10:19:10;40.75;;;24.50;;
1306;SDS011;646;48.696;9.114;2022-12-18T10:24:55;21.27;;;17.33;;
1306;SDS011;646;48.696;9.114;2022-12-18T10:27:34;19.13;;;15.30;;
1306;SDS011;646;48.696;9.114;2022-12-18T10:30:00;22.17;;;16.40;;
1306;SDS011;646;48.696;9.114;2022-12-18T10:32:29;21.23;;;16.50;;
1306;SDS011;646;48.696;9.114;2022-12-18T10:34:56;20.00;;;16.10;;
1306;SDS011;646;48.696;9.114;2022-12-18T10:37:24;21.87;;;15.87;;
1306;SDS011;646;48.696;9.114;2022-12-18T10:42:37;19.70;;;16.43;;
1306;SDS011;646;48.696;9.114;2022-12-18T10:45:21;22.53;;;17.23;;
1306;SDS011;646;48.696;9.114;2022-12-18T10:47:47;18.83;;;16.57;;
1306;SDS011;646;48.696;9.114;2022-12-18T10:50:18;17.53;;;14.93;;
1306;SDS011;646;48.696;9.114;2022-12-18T10:52:57;17.53;;;14.97;;
1306;SDS011;646;48.696;9.114;2022-12-18T10:55:31;20.13;;;15.07;;
1306;SDS011;646;48.696;9.114;2022-12-18T10:58:05;22.73;;;17.47;;
1306;SDS011;646;48.696;9.114;2022-12-18T11:01:12;20.67;;;16.13;;
1306;SDS011;646;48.696;9.114;2022-12-18T11:06:21;21.87;;;16.83;;
1306;SDS011;646;48.696;9.114;2022-12-18T11:11:50;21.90;;;17.20;;
1306;SDS011;646;48.696;9.114;2022-12-18T11:14:21;21.80;;;18.07;;
1306;SDS011;646;48.696;9.114;2022-12-18T11:16:51;23.67;;;17.97;;
1306;SDS011;646;48.696;9.114;2022-12-18T11:21:53;22.80;;;18.00;;
1306;SDS011;646;48.696;9.114;2022-12-18T11:24:20;25.63;;;20.53;;
1306;SDS011;646;48.696;9.114;2022-12-18T11:26:53;24.17;;;19.07;;
1306;SDS011;646;48.696;9.114;2022-12-18T11:29:23;21.93;;;17.93;;
1306;SDS011;646;48.696;9.114;2022-12-18T11:32:05;22.63;;;19.60;;
1306;SDS011;646;48.696;9.114;2022-12-18T11:37:57;25.07;;;20.30;;
1306;SDS011;646;48.696;9.114;2022-12-18T11:40:35;23.10;;;17.60;;
1306;SDS011;646;48.696;9.114;2022-12-18T11:43:07;23.23;;;18.77;;
1306;SDS011;646;48.696;9.114;2022-12-18T11:45:48;23.00;;;18.70;;
1306;SDS011;646;48.696;9.114;2022-12-18T11:51:46;26.23;;;20.23;;
1306;SDS011;646;48.696;9.114;2022-12-18T11:54:16;25.00;;;19.23;;
1306;SDS011;646;48.696;9.114;2022-12-18T11:56:49;23.17;;;17.90;;
1306;SDS011;646;48.696;9.114;2022-12-18T11:59:35;23.00;;;18.10;;
1306;SDS011;646;48.696;9.114;2022-12-18T12:02:11;25.30;;;18.63;;
1306;SDS011;646;48.696;9.114;2022-12-18T12:07:49;23.13;;;17.53;;
1306;SDS011;646;48.696;9.114;2022-12-18T12:10:38;22.30;;;17.87;;
1306;SDS011;646;48.696;9.114;2022-12-18T12:16:24;24.33;;;17.50;;
1306;SDS011;646;48.696;9.114;2022-12-18T12:19:01;23.83;;;18.73;;
1306;SDS011;646;48.696;9.114;2022-12-18T12:21:58;22.70;;;16.48;;
1306;SDS011;646;48.696;9.114;2022-12-18T12:24:53;28.17;;;19.30;;
1306;SDS011;646;48.696;9.114;2022-12-18T12:27:35;21.67;;;16.95;;
1306;SDS011;646;48.696;9.114;2022-12-18T12:30:32;23.23;;;17.48;;
1306;SDS011;646;48.696;9.114;2022-12-18T12:38:46;25.27;;;16.48;;
1306;SDS011;646;48.696;9.114;2022-12-18T12:41:17;22.52;;;16.45;;
1306;SDS011;646;48.696;9.114;2022-12-18T12:44:13;27.05;;;17.23;;
1306;SDS011;646;48.696;9.114;2022-12-18T12:46:59;21.58;;;15.02;;
1306;SDS011;646;48.696;9.114;2022-12-18T12:49:33;21.75;;;13.90;;
1306;SDS011;646;48.696;9.114;2022-12-18T12:52:00;25.80;;;17.87;;
1306;SDS011;646;48.696;9.114;2022-12-18T12:54:47;28.48;;;17.48;;
1306;SDS011;646;48.696;9.114;2022-12-18T13:00:04;25.10;;;16.45;;
1306;SDS011;646;48.696;9.114;2022-12-18T13:08:03;26.63;;;15.85;;
1306;SDS011;646;48.696;9.114;2022-12-18T13:10:36;21.83;;;13.73;;
1306;SDS011;646;48.696;9.114;2022-12-18T13:13:11;22.85;;;14.85;;
1306;SDS011;646;48.696;9.114;2022-12-18T13:15:47;26.95;;;16.45;;
1306;SDS011;646;48.696;9.114;2022-12-18T13:18:28;32.15;;;21.30;;
1306;SDS011;646;48.696;9.114;2022-12-18T13:23:23;34.90;;;24.10;;
1306;SDS011;646;48.696;9.114;2022-12-18T13:25:53;32.83;;;23.50;;
1306;SDS011;646;48.696;9.114;2022-12-18T13:30:59;34.10;;;21.00;;
1306;SDS011;646;48.696;9.114;2022-12-18T13:41:44;31.13;;;20.73;;
1306;SDS011;646;48.696;9.114;2022-12-18T13:46:43;33.97;;;20.00;;
1306;SDS011;646;48.696;9.114;2022-12-18T13:51:39;28.23;;;20.35;;
1306;SDS011;646;48.696;9.114;2022-12-18T13:56:43;32.22;;;19.77;;
1306;SDS011;646;48.696;9.114;2022-12-18T13:59:14;39.13;;;22.02;;
1306;SDS011;646;48.696;9.114;2022-12-18T14:01:44;39.50;;;21.25;;
1306;SDS011;646;48.696;9.114;2022-12-18T14:04:16;32.58;;;19.90;;
1306;SDS011;646;48.696;9.114;2022-12-18T14:06:45;27.23;;;16.58;;
1306;SDS011;646;48.696;9.114;2022-12-18T14:09:13;28.70;;;18.25;;
1306;SDS011;646;48.696;9.114;2022-12-18T14:11:50;26.42;;;17.48;;
1306;SDS011;646;48.696;9.114;2022-12-18T14:14:19;26.92;;;17.45;;
1306;SDS011;646;48.696;9.114;2022-12-18T14:16:45;29.80;;;17.88;;
1306;SDS011;646;48.696;9.114;2022-12-18T14:19:13;22.55;;;15.57;;
1306;SDS011;646;48.696;9.114;2022-12-18T14:21:40;20.83;;;14.88;;
1306;SDS011;646;48.696;9.114;2022-12-18T14:24:16;24.92;;;16.08;;
1306;SDS011;646;48.696;9.114;2022-12-18T14:26:44;22.45;;;15.93;;
1306;SDS011;646;48.696;9.114;2022-12-18T14:29:21;29.75;;;18.30;;
1306;SDS011;646;48.696;9.114;2022-12-18T14:32:04;29.83;;;19.30;;
1306;SDS011;646;48.696;9.114;2022-12-18T14:34:31;40.28;;;30.50;;
1306;SDS011;646;48.696;9.114;2022-12-18T14:36:56;55.97;;;40.77;;
1306;SDS011;646;48.696;9.114;2022-12-18T14:39:22;65.63;;;50.37;;
1306;SDS011;646;48.696;9.114;2022-12-18T14:41:50;54.13;;;41.78;;
1306;SDS011;646;48.696;9.114;2022-12-18T14:44:16;38.27;;;27.27;;
1306;SDS011;646;48.696;9.114;2022-12-18T14:46:42;40.83;;;28.00;;
1306;SDS011;646;48.696;9.114;2022-12-18T14:49:18;38.33;;;24.10;;
1306;SDS011;646;48.696;9.114;2022-12-18T14:51:57;32.53;;;23.17;;
1306;SDS011;646;48.696;9.114;2022-12-18T14:54:29;39.33;;;26.67;;
1306;SDS011;646;48.696;9.114;2022-12-18T14:57:14;38.47;;;23.45;;
1306;SDS011;646;48.696;9.114;2022-12-18T14:59:47;36.00;;;22.45;;
1306;SDS011;646;48.696;9.114;2022-12-18T15:04:44;59.35;;;35.50;;
1306;SDS011;646;48.696;9.114;2022-12-18T15:09:36;43.97;;;30.80;;
1306;SDS011;646;48.696;9.114;2022-12-18T15:12:03;42.38;;;27.83;;
1306;SDS011;646;48.696;9.114;2022-12-18T15:14:33;36.10;;;25.30;;
1306;SDS011;646;48.696;9.114;2022-12-18T15:17:00;34.72;;;21.27;;
1306;SDS011;646;48.696;9.114;2022-12-18T15:19:35;28.10;;;19.48;;
1306;SDS011;646;48.696;9.114;2022-12-18T15:22:17;23.60;;;17.80;;
1306;SDS011;646;48.696;9.114;2022-12-18T15:24:51;26.30;;;17.80;;
1306;SDS011;646;48.696;9.114;2022-12-18T15:27:21;33.38;;;22.70;;
1306;SDS011;646;48.696;9.114;2022-12-18T15:30:10;28.13;;;18.50;;
1306;SDS011;646;48.696;9.114;2022-12-18T15:32:45;27.08;;;14.68;;
1306;SDS011;646;48.696;9.114;2022-12-18T15:35:19;29.48;;;18.13;;
1306;SDS011;646;48.696;9.114;2022-12-18T15:37:47;29.05;;;17.77;;
1306;SDS011;646;48.696;9.114;2022-12-18T15:40:17;31.83;;;19.05;;
1306;SDS011;646;48.696;9.114;2022-12-18T15:42:45;24.20;;;14.75;;
1306;SDS011;646;48.696;9.114;2022-12-18T15:45:30;25.95;;;18.52;;
1306;SDS011;646;48.696;9.114;2022-12-18T15:47:56;25.90;;;16.53;;
1306;SDS011;646;48.696;9.114;2022-12-18T15:50:21;28.33;;;17.40;;
1306;SDS011;646;48.696;9.114;2022-12-18T15:52:49;26.67;;;15.55;;
1306;SDS011;646;48.696;9.114;2022-12-18T15:55:17;26.00;;;14.15;;
1306;SDS011;646;48.696;9.114;2022-12-18T15:58:06;26.17;;;16.60;;
1306;SDS011;646;48.696;9.114;2022-12-18T16:00:34;21.65;;;13.70;;
1306;SDS011;646;48.696;9.114;2022-12-18T16:03:01;27.90;;;15.82;;
1306;SDS011;646;48.696;9.114;2022-12-18T16:05:27;26.65;;;14.48;;
1306;SDS011;646;48.696;9.114;2022-12-18T16:07:54;23.90;;;13.45;;
1306;SDS011;646;48.696;9.114;2022-12-18T16:10:20;23.70;;;15.37;;
1306;SDS011;646;48.696;9.114;2022-12-18T16:12:46;22.90;;;15.15;;
1306;SDS011;646;48.696;9.114;2022-12-18T16:15:12;24.65;;;14.18;;
1306;SDS011;646;48.696;9.114;2022-12-18T16:17:40;21.88;;;15.25;;
1306;SDS011;646;48.696;9.114;2022-12-18T16:20:17;22.70;;;12.82;;
1306;SDS011;646;48.696;9.114;2022-12-18T16:22:44;21.00;;;14.05;;
1306;SDS011;646;48.696;9.114;2022-12-18T16:27:44;21.85;;;12.82;;
1306;SDS011;646;48.696;9.114;2022-12-18T16:30:14;28.63;;;17.20;;
1306;SDS011;646;48.696;9.114;2022-12-18T16:32:40;38.00;;;21.58;;
1306;SDS011;646;48.696;9.114;2022-12-18T16:35:08;39.95;;;24.00;;
1306;SDS011;646;48.696;9.114;2022-12-18T16:37:35;34.25;;;21.40;;
1306;SDS011;646;48.696;9.114;2022-12-18T16:40:00;32.87;;;19.37;;
1306;SDS011;646;48.696;9.114;2022-12-18T16:42:26;26.20;;;15.97;;
1306;SDS011;646;48.696;9.114;2022-12-18T16:44:51;25.90;;;17.07;;
1306;SDS011;646;48.696;9.114;2022-12-18T16:47:17;22.37;;;13.97;;
1306;SDS011;646;48.696;9.114;2022-12-18T16:49:43;26.95;;;14.50;;
1306;SDS011;646;48.696;9.114;2022-12-18T16:52:15;20.63;;;12.05;;
1306;SDS011;646;48.696;9.114;2022-12-18T16:54:41;29.13;;;15.53;;
1306;SDS011;646;48.696;9.114;2022-12-18T16:57:06;25.50;;;12.83;;
1306;SDS011;646;48.696;9.114;2022-12-18T16:59:37;24.13;;;14.05;;
1306;SDS011;646;48.696;9.114;2022-12-18T17:02:04;27.77;;;12.03;;
1306;SDS011;646;48.696;9.114;2022-12-18T17:04:30;19.58;;;12.95;;
1306;SDS011;646;48.696;9.114;2022-12-18T17:06:56;20.20;;;14.30;;
1306;SDS011;646;48.696;9.114;2022-12-18T17:09:21;21.77;;;13.10;;